createdAt,value
2019-02-25T00:00:37.331Z,72.16
2019-02-25T00:01:37.229Z,72.92
2019-02-25T00:02:37.294Z,72.92
2019-02-25T00:03:37.114Z,72.63
2019-02-25T00:04:37.176Z,73.11
2019-02-25T00:05:37.052Z,72.82
2019-02-25T00:06:36.971Z,72.25
2019-02-25T00:07:36.932Z,72.25
2019-02-25T00:08:36.934Z,72.63
2019-02-25T00:09:36.814Z,73.86
2019-02-25T00:10:36.731Z,74.71
2019-02-25T00:11:36.698Z,75.00
2019-02-25T00:12:36.617Z,74.52
2019-02-25T00:13:36.609Z,74.81
2019-02-25T00:14:36.579Z,74.71
2019-02-25T00:15:36.456Z,74.81
2019-02-25T00:16:36.375Z,74.62
2019-02-25T00:17:36.374Z,73.49
2019-02-25T00:18:36.338Z,71.97
2019-02-25T00:19:36.254Z,72.44
2019-02-25T00:20:36.145Z,72.53
2019-02-25T00:21:36.131Z,73.11
2019-02-25T00:22:36.100Z,73.86
2019-02-25T00:23:36.017Z,73.30
2019-02-25T00:24:35.912Z,73.77
2019-02-25T00:25:35.896Z,74.62
2019-02-25T00:26:35.862Z,74.24
2019-02-25T00:27:35.858Z,74.24
2019-02-25T00:28:35.746Z,74.33
2019-02-25T00:29:35.659Z,74.81
2019-02-25T00:30:35.625Z,75.00
2019-02-25T00:31:35.622Z,75.00
2019-02-25T00:32:35.503Z,74.52
2019-02-25T00:33:35.420Z,74.52
2019-02-25T00:34:35.385Z,74.62
2019-02-25T00:35:35.301Z,74.81
2019-02-25T00:36:35.303Z,74.62
2019-02-25T00:37:35.177Z,74.62
2019-02-25T00:38:35.189Z,74.33
2019-02-25T00:39:35.066Z,74.71
2019-02-25T00:40:35.027Z,74.90
2019-02-25T00:41:35.034Z,75.85
2019-02-25T00:42:34.943Z,76.23
2019-02-25T00:43:35.036Z,76.51
2019-02-25T00:44:34.822Z,76.51
2019-02-25T00:45:34.728Z,76.42
2019-02-25T00:46:34.705Z,75.95
2019-02-25T00:47:34.598Z,75.95
2019-02-25T00:48:34.672Z,76.89
2019-02-25T00:49:35.066Z,76.80
2019-02-25T00:50:34.552Z,76.70
2019-02-25T00:51:34.429Z,76.51
2019-02-25T00:52:34.348Z,75.85
2019-02-25T00:53:34.311Z,75.85
2019-02-25T00:54:34.310Z,75.28
2019-02-25T00:55:34.190Z,75.09
2019-02-25T00:56:34.105Z,75.47
2019-02-25T00:57:34.080Z,75.76
2019-02-25T00:58:33.990Z,76.51
2019-02-25T00:59:33.991Z,76.80
2019-02-25T01:00:33.873Z,77.18
2019-02-25T01:01:33.842Z,77.08
2019-02-25T01:02:33.760Z,78.03
2019-02-25T01:03:33.716Z,79.07
2019-02-25T01:04:33.713Z,79.07
2019-02-25T01:05:33.596Z,77.84
2019-02-25T01:06:33.516Z,77.08
2019-02-25T01:07:33.517Z,77.27
2019-02-25T01:08:33.481Z,77.65
2019-02-25T01:09:33.395Z,77.94
2019-02-25T01:10:33.280Z,78.79
2019-02-25T01:11:33.277Z,79.55
2019-02-25T01:12:33.185Z,79.41
2019-02-25T01:13:33.246Z,79.22
2019-02-25T01:14:33.055Z,79.98
2019-02-25T01:15:33.034Z,81.12
2019-02-25T01:16:32.939Z,82.44
2019-02-25T01:17:32.915Z,83.48
2019-02-25T01:18:32.919Z,83.86
2019-02-25T01:19:32.794Z,83.20
2019-02-25T01:20:32.760Z,83.01
2019-02-25T01:21:32.762Z,80.96
2019-02-25T01:22:32.649Z,80.30
2019-02-25T01:23:32.561Z,79.26
2019-02-25T01:24:32.557Z,79.36
2019-02-25T01:25:32.440Z,77.94
2019-02-25T01:26:32.436Z,77.18
2019-02-25T01:27:32.320Z,77.56
2019-02-25T01:28:32.286Z,78.13
2019-02-25T01:29:32.215Z,79.07
2019-02-25T01:30:32.174Z,79.07
2019-02-25T01:31:32.173Z,79.83
2019-02-25T01:32:32.091Z,80.30
2019-02-25T01:33:31.966Z,80.30
2019-02-25T01:34:32.048Z,81.72
2019-02-25T01:35:31.849Z,81.34
2019-02-25T01:36:31.841Z,81.44
2019-02-25T01:37:31.735Z,81.72
2019-02-25T01:38:31.724Z,82.10
2019-02-25T01:39:31.728Z,82.39
2019-02-25T01:40:31.617Z,81.34
2019-02-25T01:41:31.497Z,81.34
2019-02-25T01:42:31.489Z,81.06
2019-02-25T01:43:31.389Z,80.49
2019-02-25T01:44:31.449Z,80.40
2019-02-25T01:45:31.338Z,79.74
2019-02-25T01:46:31.244Z,80.49
2019-02-25T01:47:31.222Z,81.15
2019-02-25T01:48:31.132Z,81.15
2019-02-25T01:49:31.128Z,81.82
2019-02-25T01:50:31.007Z,82.57
2019-02-25T01:51:30.973Z,83.14
2019-02-25T01:52:30.895Z,82.48
2019-02-25T01:53:30.852Z,82.29
2019-02-25T01:54:30.862Z,82.67
2019-02-25T01:55:30.742Z,83.05
2019-02-25T01:56:30.650Z,83.33
2019-02-25T01:57:30.613Z,83.43
2019-02-25T01:58:30.551Z,84.75
2019-02-25T01:59:30.529Z,84.38
2019-02-25T02:00:30.411Z,83.71
2019-02-25T02:01:30.376Z,83.14
2019-02-25T02:02:30.387Z,82.67
2019-02-25T02:03:30.296Z,81.82
2019-02-25T02:04:30.173Z,82.01
2019-02-25T02:05:30.188Z,82.29
2019-02-25T02:06:30.064Z,82.10
2019-02-25T02:07:30.137Z,83.52
2019-02-25T02:08:30.020Z,83.33
2019-02-25T02:09:29.932Z,83.52
2019-02-25T02:10:29.827Z,84.28
2019-02-25T02:11:29.820Z,84.19
2019-02-25T02:12:29.824Z,83.24
2019-02-25T02:13:29.694Z,83.05
2019-02-25T02:14:29.671Z,82.10
2019-02-25T02:15:29.580Z,81.15
2019-02-25T02:16:29.554Z,79.45
2019-02-25T02:17:29.550Z,78.13
2019-02-25T02:18:29.425Z,76.93
2019-02-25T02:19:29.576Z,75.98
2019-02-25T02:20:29.304Z,75.70
2019-02-25T02:21:29.219Z,75.04
2019-02-25T02:22:29.188Z,74.71
2019-02-25T02:23:29.104Z,73.71
2019-02-25T02:24:29.113Z,75.04
2019-02-25T02:25:28.979Z,75.51
2019-02-25T02:26:28.955Z,75.98
2019-02-25T02:27:28.863Z,76.51
2019-02-25T02:28:28.834Z,76.99
2019-02-25T02:29:28.826Z,77.08
2019-02-25T02:30:28.714Z,77.56
2019-02-25T02:31:28.619Z,78.69
2019-02-25T02:32:28.625Z,79.83
2019-02-25T02:33:28.508Z,80.49
2019-02-25T02:34:28.501Z,80.87
2019-02-25T02:35:28.391Z,81.25
2019-02-25T02:36:28.388Z,82.29
2019-02-25T02:37:28.357Z,82.48
2019-02-25T02:38:28.264Z,82.01
2019-02-25T02:39:28.159Z,81.25
2019-02-25T02:40:28.143Z,81.53
2019-02-25T02:41:28.113Z,81.15
2019-02-25T02:42:28.026Z,81.25
2019-02-25T02:43:27.931Z,80.77
2019-02-25T02:44:27.907Z,81.72
2019-02-25T02:45:27.806Z,83.52
2019-02-25T02:46:27.880Z,83.90
2019-02-25T02:47:27.761Z,84.19
2019-02-25T02:48:27.677Z,85.51
2019-02-25T02:49:27.643Z,85.99
2019-02-25T02:50:27.556Z,85.99
2019-02-25T02:51:27.567Z,86.08
2019-02-25T02:52:27.433Z,86.18
2019-02-25T02:53:27.398Z,85.70
2019-02-25T02:54:27.315Z,85.80
2019-02-25T02:55:27.284Z,85.80
2019-02-25T02:56:27.283Z,86.55
2019-02-25T02:57:27.165Z,85.99
2019-02-25T02:58:27.077Z,85.32
2019-02-25T02:59:27.045Z,83.62
2019-02-25T03:00:26.950Z,82.95
2019-02-25T03:01:26.962Z,82.10
2019-02-25T03:02:26.919Z,81.25
2019-02-25T03:03:26.800Z,80.40
2019-02-25T03:04:26.713Z,79.55
2019-02-25T03:05:26.714Z,79.83
2019-02-25T03:06:26.620Z,79.26
2019-02-25T03:07:26.679Z,78.98
2019-02-25T03:08:26.483Z,79.07
2019-02-25T03:09:26.477Z,78.41
2019-02-25T03:10:26.372Z,78.98
2019-02-25T03:11:26.442Z,78.79
2019-02-25T03:12:26.257Z,77.94
2019-02-25T03:13:26.321Z,79.45
2019-02-25T03:14:26.135Z,79.55
2019-02-25T03:15:26.119Z,79.55
2019-02-25T03:16:26.093Z,80.40
2019-02-25T03:17:25.999Z,80.87
2019-02-25T03:18:25.902Z,80.21
2019-02-25T03:19:25.883Z,79.74
2019-02-25T03:20:25.857Z,79.55
2019-02-25T03:21:25.847Z,79.45
2019-02-25T03:22:25.728Z,79.74
2019-02-25T03:23:25.648Z,79.64
2019-02-25T03:24:25.613Z,80.49
2019-02-25T03:25:25.523Z,80.87
2019-02-25T03:26:25.537Z,81.25
2019-02-25T03:27:25.408Z,81.34
2019-02-25T03:28:25.411Z,81.25
2019-02-25T03:29:25.375Z,80.30
2019-02-25T03:30:25.251Z,78.13
2019-02-25T03:31:25.164Z,76.14
2019-02-25T03:32:25.139Z,75.28
2019-02-25T03:33:25.139Z,75.09
2019-02-25T03:34:25.020Z,74.15
2019-02-25T03:35:24.924Z,72.92
2019-02-25T03:36:24.930Z,72.82
2019-02-25T03:37:24.806Z,71.97
2019-02-25T03:38:24.807Z,70.26
2019-02-25T03:39:24.698Z,69.70
2019-02-25T03:40:24.692Z,69.73
2019-02-25T03:41:24.658Z,69.22
2019-02-25T03:42:24.568Z,68.59
2019-02-25T03:43:24.534Z,68.02
2019-02-25T03:44:24.449Z,68.02
2019-02-25T03:45:24.342Z,68.40
2019-02-25T03:46:24.328Z,68.40
2019-02-25T03:47:24.227Z,68.98
2019-02-25T03:48:24.297Z,69.17
2019-02-25T03:49:24.114Z,68.69
2019-02-25T03:50:24.093Z,70.01
2019-02-25T03:51:23.998Z,72.00
2019-02-25T03:52:24.057Z,73.11
2019-02-25T03:53:23.945Z,73.39
2019-02-25T03:54:23.853Z,73.77
2019-02-25T03:55:23.827Z,74.05
2019-02-25T03:56:23.752Z,74.33
2019-02-25T03:57:23.738Z,75.28
2019-02-25T03:58:23.620Z,75.95
2019-02-25T03:59:23.584Z,76.51
2019-02-25T04:00:23.496Z,75.66
2019-02-25T04:01:23.482Z,75.57
2019-02-25T04:02:23.470Z,76.04
2019-02-25T04:03:23.343Z,76.42
2019-02-25T04:04:23.263Z,76.70
2019-02-25T04:05:23.260Z,76.70
2019-02-25T04:06:23.135Z,76.80
2019-02-25T04:07:23.111Z,77.84
2019-02-25T04:08:23.022Z,77.37
2019-02-25T04:09:23.026Z,77.56
2019-02-25T04:10:22.990Z,77.94
2019-02-25T04:11:22.901Z,78.03
2019-02-25T04:12:22.806Z,78.50
2019-02-25T04:13:22.781Z,78.59
2019-02-25T04:14:22.748Z,78.88
2019-02-25T04:15:22.746Z,79.60
2019-02-25T04:16:22.565Z,80.64
2019-02-25T04:17:22.540Z,81.15
2019-02-25T04:18:22.442Z,81.02
2019-02-25T04:19:22.433Z,81.21
2019-02-25T04:20:22.391Z,79.45
2019-02-25T04:21:22.312Z,79.26
2019-02-25T04:22:22.269Z,78.69
2019-02-25T04:23:22.207Z,76.42
2019-02-25T04:24:22.193Z,75.47
2019-02-25T04:25:22.073Z,74.52
2019-02-25T04:26:22.034Z,73.58
2019-02-25T04:27:21.966Z,73.49
2019-02-25T04:28:21.974Z,74.43
2019-02-25T04:29:21.838Z,75.00
2019-02-25T04:30:21.799Z,76.80
2019-02-25T04:31:21.712Z,78.98
2019-02-25T04:32:21.840Z,80.30
2019-02-25T04:33:21.675Z,81.72
2019-02-25T04:34:21.556Z,83.24
2019-02-25T04:35:21.472Z,84.71
2019-02-25T04:36:21.476Z,86.04
2019-02-25T04:37:21.346Z,85.47
2019-02-25T04:38:21.592Z,84.61
2019-02-25T04:39:21.238Z,83.86
2019-02-25T04:40:21.195Z,82.95
2019-02-25T04:41:21.109Z,82.10
2019-02-25T04:42:21.076Z,82.20
2019-02-25T04:43:21.075Z,82.10
2019-02-25T04:44:20.993Z,80.40
2019-02-25T04:45:20.902Z,80.30
2019-02-25T04:46:20.876Z,80.02
2019-02-25T04:47:20.762Z,76.61
2019-02-25T04:48:20.847Z,75.38
2019-02-25T04:49:20.656Z,73.96
2019-02-25T04:50:20.633Z,72.82
2019-02-25T04:51:20.531Z,72.92
2019-02-25T04:52:20.513Z,74.15
2019-02-25T04:53:20.512Z,74.81
2019-02-25T04:54:20.399Z,75.47
2019-02-25T04:55:20.305Z,76.51
2019-02-25T04:56:20.281Z,76.99
2019-02-25T04:57:20.178Z,77.56
2019-02-25T04:58:20.245Z,76.51
2019-02-25T04:59:20.121Z,77.27
2019-02-25T05:00:20.144Z,77.37
2019-02-25T05:01:20.005Z,78.31
2019-02-25T05:02:19.928Z,79.55
2019-02-25T05:03:19.892Z,80.11
2019-02-25T05:04:19.809Z,80.40
2019-02-25T05:05:19.808Z,81.34
2019-02-25T05:06:19.684Z,81.72
2019-02-25T05:07:19.659Z,81.25
2019-02-25T05:08:19.657Z,81.25
2019-02-25T05:09:19.526Z,81.06
2019-02-25T05:10:19.441Z,80.40
2019-02-25T05:11:19.408Z,80.02
2019-02-25T05:12:19.416Z,80.68
2019-02-25T05:13:19.329Z,81.44
2019-02-25T05:14:19.201Z,81.72
2019-02-25T05:15:19.213Z,80.96
2019-02-25T05:16:19.082Z,80.49
2019-02-25T05:17:19.056Z,81.06
2019-02-25T05:18:18.965Z,80.68
2019-02-25T05:19:19.054Z,80.68
2019-02-25T05:20:18.848Z,81.06
2019-02-25T05:21:18.845Z,80.87
2019-02-25T05:22:18.748Z,81.25
2019-02-25T05:23:18.724Z,81.06
2019-02-25T05:24:18.695Z,80.40
2019-02-25T05:25:18.606Z,79.55
2019-02-25T05:26:18.508Z,79.55
2019-02-25T05:27:18.504Z,79.83
2019-02-25T05:28:18.381Z,79.36
2019-02-25T05:29:18.457Z,79.74
2019-02-25T05:30:18.274Z,80.30
2019-02-25T05:31:18.257Z,81.06
2019-02-25T05:32:18.152Z,81.15
2019-02-25T05:33:18.139Z,80.96
2019-02-25T05:34:18.104Z,81.72
2019-02-25T05:35:18.104Z,81.63
2019-02-25T05:36:18.021Z,80.40
2019-02-25T05:37:17.906Z,80.68
2019-02-25T05:38:17.862Z,80.30
2019-02-25T05:39:17.772Z,79.64
2019-02-25T05:40:17.751Z,81.25
2019-02-25T05:41:17.749Z,82.01
2019-02-25T05:42:17.622Z,84.09
2019-02-25T05:43:17.542Z,84.94
2019-02-25T05:44:17.561Z,85.80
2019-02-25T05:45:17.422Z,86.93
2019-02-25T05:46:17.418Z,88.35
2019-02-25T05:47:17.299Z,88.73
2019-02-25T05:48:17.301Z,89.11
2019-02-25T05:49:17.180Z,88.92
2019-02-25T05:50:17.145Z,86.55
2019-02-25T05:51:17.057Z,85.42
2019-02-25T05:52:17.031Z,83.14
2019-02-25T05:53:17.032Z,82.20
2019-02-25T05:54:16.914Z,81.25
2019-02-25T05:55:16.965Z,80.96
2019-02-25T05:56:16.824Z,80.40
2019-02-25T05:57:16.701Z,81.15
2019-02-25T05:58:16.700Z,81.15
2019-02-25T05:59:16.581Z,82.57
2019-02-25T06:00:16.581Z,82.10
2019-02-25T06:01:16.552Z,81.06
2019-02-25T06:02:16.479Z,81.06
2019-02-25T06:03:16.355Z,81.72
2019-02-25T06:04:16.345Z,81.44
2019-02-25T06:05:16.232Z,81.53
2019-02-25T06:06:16.313Z,81.53
2019-02-25T06:07:16.117Z,81.25
2019-02-25T06:08:16.111Z,82.20
2019-02-25T06:09:16.004Z,82.76
2019-02-25T06:10:15.985Z,83.24
2019-02-25T06:11:15.988Z,83.71
2019-02-25T06:12:15.969Z,85.99
2019-02-25T06:13:15.835Z,87.02
2019-02-25T06:14:15.754Z,87.50
2019-02-25T06:15:15.720Z,88.07
2019-02-25T06:16:15.631Z,87.78
2019-02-25T06:17:15.628Z,88.82
2019-02-25T06:18:15.511Z,88.17
2019-02-25T06:19:15.482Z,87.98
2019-02-25T06:20:15.396Z,88.26
2019-02-25T06:21:15.396Z,88.35
2019-02-25T06:22:15.369Z,89.68
2019-02-25T06:23:15.242Z,90.72
2019-02-25T06:24:15.159Z,91.38
2019-02-25T06:25:15.120Z,92.71
2019-02-25T06:26:15.033Z,92.00
2019-02-25T06:27:15.032Z,91.10
2019-02-25T06:28:14.909Z,90.48
2019-02-25T06:29:14.890Z,90.11
2019-02-25T06:30:14.795Z,91.43
2019-02-25T06:31:14.757Z,92.29
2019-02-25T06:32:14.767Z,93.56
2019-02-25T06:33:14.647Z,95.69
2019-02-25T06:34:14.641Z,96.73
2019-02-25T06:35:14.568Z,96.73
2019-02-25T06:36:14.441Z,96.73
2019-02-25T06:37:14.435Z,95.97
2019-02-25T06:38:14.408Z,96.54
2019-02-25T06:39:14.318Z,97.02
2019-02-25T06:40:15.609Z,98.53
2019-02-25T06:41:14.196Z,99.66
2019-02-25T06:42:14.091Z,99.99
2019-02-25T06:43:14.170Z,99.10
2019-02-25T06:44:13.977Z,98.58
2019-02-25T06:45:13.958Z,98.11
2019-02-25T06:46:13.855Z,96.50
2019-02-25T06:47:13.862Z,95.45
2019-02-25T06:48:13.843Z,95.26
2019-02-25T06:49:13.721Z,96.12
2019-02-25T06:50:13.684Z,96.59
2019-02-25T06:51:13.604Z,97.73
2019-02-25T06:52:13.577Z,98.30
2019-02-25T06:53:13.571Z,99.24
2019-02-25T06:54:13.447Z,99.43
2019-02-25T06:55:13.366Z,99.90
2019-02-25T06:56:13.327Z,99.52
2019-02-25T06:57:13.249Z,99.33
2019-02-25T06:58:13.247Z,99.24
2019-02-25T06:59:13.124Z,97.11
2019-02-25T07:00:13.101Z,95.31
2019-02-25T07:01:13.002Z,93.56
2019-02-25T07:02:12.972Z,91.47
2019-02-25T07:03:12.971Z,88.96
2019-02-25T07:04:12.857Z,87.54
2019-02-25T07:05:12.767Z,86.35
2019-02-25T07:06:12.765Z,83.88
2019-02-25T07:07:12.668Z,82.40
2019-02-25T07:08:12.740Z,80.55
2019-02-25T07:09:12.612Z,78.59
2019-02-25T07:10:12.527Z,74.69
2019-02-25T07:11:12.492Z,72.86
2019-02-25T07:12:12.414Z,70.90
2019-02-25T07:13:12.388Z,69.60
2019-02-25T07:14:12.382Z,67.70
2019-02-25T07:15:12.296Z,66.88
2019-02-25T07:16:12.169Z,64.62
2019-02-25T07:17:12.174Z,61.04
2019-02-25T07:18:12.064Z,58.75
2019-02-25T07:19:12.051Z,57.95
2019-02-25T07:20:12.048Z,58.55
2019-02-25T07:21:11.931Z,58.36
2019-02-25T07:22:11.905Z,58.39
2019-02-25T07:23:11.822Z,57.65
2019-02-25T07:24:11.816Z,55.01
2019-02-25T07:25:11.818Z,54.72
2019-02-25T07:26:11.695Z,53.32
2019-02-25T07:27:11.694Z,52.29
2019-02-25T07:28:11.598Z,52.01
2019-02-25T07:29:11.579Z,52.58
2019-02-25T07:30:11.665Z,52.42
2019-02-25T07:31:11.463Z,51.27
2019-02-25T07:32:11.453Z,50.81
2019-02-25T07:33:11.432Z,49.88
2019-02-25T07:34:11.341Z,49.11
2019-02-25T07:35:11.421Z,48.47
2019-02-25T07:36:11.344Z,47.71
2019-02-25T07:37:11.310Z,47.03
2019-02-25T07:38:11.218Z,46.82
2019-02-25T07:39:11.124Z,46.34
2019-02-25T07:40:11.102Z,47.20
2019-02-25T07:41:11.183Z,46.34
2019-02-25T07:42:11.002Z,46.84
2019-02-25T07:43:10.983Z,46.62
2019-02-25T07:44:10.979Z,46.44
2019-02-25T07:45:10.883Z,45.86
2019-02-25T07:46:10.947Z,45.76
2019-02-25T07:47:10.862Z,45.48
2019-02-25T07:48:10.832Z,45.31
2019-02-25T07:49:10.740Z,44.16
2019-02-25T07:50:10.744Z,42.63
2019-02-25T07:51:10.743Z,42.34
2019-02-25T07:52:10.626Z,41.28
2019-02-25T07:53:10.710Z,39.97
2019-02-25T07:54:10.591Z,40.44
2019-02-25T07:55:10.506Z,40.37
2019-02-25T07:56:10.504Z,41.25
2019-02-25T07:57:10.512Z,40.79
2019-02-25T07:58:10.408Z,39.78
2019-02-25T07:59:10.386Z,39.12
2019-02-25T08:00:10.354Z,38.76
2019-02-25T08:01:10.283Z,37.99
2019-02-25T08:02:10.355Z,37.51
2019-02-25T08:03:10.266Z,37.12
2019-02-25T08:04:10.238Z,37.01
2019-02-25T08:05:10.150Z,37.10
2019-02-25T08:06:11.967Z,37.20
2019-02-25T08:07:10.152Z,37.10
2019-02-25T08:08:10.050Z,37.27
2019-02-25T08:09:10.044Z,37.84
2019-02-25T08:10:10.118Z,38.12
2019-02-25T08:11:09.994Z,38.41
2019-02-25T08:12:09.915Z,39.11
2019-02-25T08:13:09.911Z,39.01
2019-02-25T08:14:09.883Z,38.34
2019-02-25T08:15:09.881Z,37.57
2019-02-25T08:16:09.791Z,37.47
2019-02-25T08:17:09.803Z,37.37
2019-02-25T08:18:09.703Z,36.91
2019-02-25T08:19:09.678Z,36.15
2019-02-25T08:20:09.760Z,35.47
2019-02-25T08:21:09.651Z,34.51
2019-02-25T08:22:09.561Z,33.75
2019-02-25T08:23:09.651Z,32.60
2019-02-25T08:24:09.553Z,32.43
2019-02-25T08:25:09.520Z,32.43
2019-02-25T08:26:09.441Z,32.15
2019-02-25T08:27:09.435Z,31.49
2019-02-25T08:28:09.451Z,31.21
2019-02-25T08:29:09.327Z,31.21
2019-02-25T08:30:09.318Z,31.22
2019-02-25T08:31:09.414Z,31.33
2019-02-25T08:32:09.283Z,30.46
2019-02-25T08:33:09.284Z,29.60
2019-02-25T08:34:18.159Z,28.95
2019-02-25T08:35:09.170Z,27.40
2019-02-25T08:36:09.104Z,25.86
2019-02-25T08:37:09.085Z,26.92
2019-02-25T08:38:09.182Z,27.33
2019-02-25T08:39:09.059Z,27.13
2019-02-25T08:40:08.979Z,28.40
2019-02-25T08:41:08.977Z,28.89
2019-02-25T08:42:08.973Z,26.29
2019-02-25T08:43:08.958Z,25.51
2019-02-25T08:44:08.853Z,25.61
2019-02-25T08:45:08.839Z,25.71
2019-02-25T08:46:08.850Z,25.01
2019-02-25T08:47:15.572Z,24.72
2019-02-25T08:48:08.722Z,25.40
2019-02-25T08:49:08.816Z,25.60
2019-02-25T08:50:08.697Z,25.51
2019-02-25T08:51:08.727Z,24.74
2019-02-25T08:52:08.604Z,24.63
2019-02-25T08:53:08.612Z,24.93
2019-02-25T08:54:08.571Z,25.04
2019-02-25T08:55:08.499Z,24.16
2019-02-25T08:56:08.571Z,23.76
2019-02-25T08:57:08.486Z,24.44
2019-02-25T08:58:08.453Z,24.44
2019-02-25T08:59:08.372Z,23.40
2019-02-25T09:00:08.464Z,23.30
2019-02-25T09:01:08.338Z,24.38
2019-02-25T09:02:08.335Z,23.70
2019-02-25T09:03:08.259Z,23.41
2019-02-25T09:04:08.248Z,24.68
2019-02-25T09:05:08.252Z,23.82
2019-02-25T09:06:08.151Z,23.44
2019-02-25T09:07:08.132Z,22.38
2019-02-25T09:08:08.218Z,21.89
2019-02-25T09:09:08.104Z,21.80
2019-02-25T09:10:08.026Z,21.89
2019-02-25T09:11:14.126Z,22.09
2019-02-25T09:12:08.013Z,22.27
2019-02-25T09:13:08.014Z,22.85
2019-02-25T09:14:07.903Z,23.24
2019-02-25T09:15:07.897Z,23.72
2019-02-25T09:16:07.895Z,23.24
2019-02-25T09:17:07.861Z,22.66
2019-02-25T09:18:07.868Z,23.14
2019-02-25T09:19:07.783Z,24.51
2019-02-25T09:20:07.750Z,23.93
2019-02-25T09:21:08.257Z,24.91
2019-02-25T09:22:07.664Z,24.62
2019-02-25T09:23:07.742Z,24.23
2019-02-25T09:24:07.623Z,23.65
2019-02-25T09:25:07.557Z,22.99
2019-02-25T09:26:07.544Z,23.27
2019-02-25T09:27:07.542Z,23.77
2019-02-25T09:28:07.538Z,22.33
2019-02-25T09:29:07.514Z,22.13
2019-02-25T09:30:07.421Z,21.55
2019-02-25T09:31:07.420Z,21.16
2019-02-25T09:32:07.391Z,21.16
2019-02-25T09:33:07.395Z,21.26
2019-02-25T09:34:07.397Z,21.36
2019-02-25T09:35:07.308Z,21.34
2019-02-25T09:36:07.275Z,21.15
2019-02-25T09:37:07.182Z,21.05
2019-02-25T09:38:07.185Z,22.02
2019-02-25T09:39:07.184Z,21.44
2019-02-25T09:40:07.185Z,20.65
2019-02-25T09:41:07.063Z,21.15
2019-02-25T09:42:07.066Z,21.15
2019-02-25T09:43:07.028Z,20.68
2019-02-25T09:44:07.070Z,21.75
2019-02-25T09:45:06.952Z,20.48
2019-02-25T09:46:06.958Z,20.09
2019-02-25T09:47:06.918Z,20.59
2019-02-25T09:48:06.840Z,20.87
2019-02-25T09:49:06.920Z,20.78
2019-02-25T09:50:06.827Z,21.16
2019-02-25T09:51:06.792Z,21.16
2019-02-25T09:52:06.711Z,21.16
2019-02-25T09:53:07.440Z,21.65
2019-02-25T09:54:06.797Z,21.94
2019-02-25T09:55:06.610Z,20.67
2019-02-25T09:56:06.592Z,20.76
2019-02-25T09:57:06.593Z,21.15
2019-02-25T09:58:06.554Z,21.26
2019-02-25T09:59:06.565Z,21.36
2019-02-25T10:00:06.564Z,20.97
2019-02-25T10:01:06.474Z,21.06
2019-02-25T10:02:06.444Z,20.68
2019-02-25T10:03:06.351Z,20.87
2019-02-25T10:04:06.350Z,20.68
2019-02-25T10:05:06.350Z,20.68
2019-02-25T10:06:06.330Z,20.59
2019-02-25T10:07:06.261Z,20.49
2019-02-25T10:08:06.233Z,20.97
2019-02-25T10:09:06.198Z,20.59
2019-02-25T10:10:06.113Z,20.78
2019-02-25T10:11:06.205Z,21.08
2019-02-25T10:12:06.089Z,20.68
2019-02-25T10:13:06.014Z,21.16
2019-02-25T10:14:05.998Z,20.68
2019-02-25T10:15:05.997Z,21.08
2019-02-25T10:16:05.994Z,20.68
2019-02-25T10:17:05.976Z,20.68
2019-02-25T10:18:05.973Z,21.17
2019-02-25T10:19:05.844Z,21.17
2019-02-25T10:20:05.779Z,20.68
2019-02-25T10:21:05.766Z,20.30
2019-02-25T10:22:05.765Z,20.58
2019-02-25T10:23:05.768Z,20.48
2019-02-25T10:24:05.643Z,21.26
2019-02-25T10:25:05.646Z,21.36
2019-02-25T10:26:05.615Z,21.84
2019-02-25T10:27:05.615Z,21.45
2019-02-25T10:28:05.521Z,21.26
2019-02-25T10:29:05.497Z,21.06
2019-02-25T10:30:05.412Z,21.06
2019-02-25T10:31:05.417Z,20.67
2019-02-25T10:32:06.594Z,20.58
2019-02-25T10:33:05.300Z,21.15
2019-02-25T10:34:05.290Z,20.87
2019-02-25T10:35:05.370Z,20.77
2019-02-25T10:36:05.255Z,20.67
2019-02-25T10:37:05.168Z,21.15
2019-02-25T10:38:05.168Z,21.05
2019-02-25T10:39:05.131Z,21.25
2019-02-25T10:40:05.132Z,21.25
2019-02-25T10:41:05.055Z,21.14
2019-02-25T10:42:05.019Z,21.25
2019-02-25T10:43:04.932Z,21.14
2019-02-25T10:44:08.521Z,21.62
2019-02-25T10:45:06.810Z,21.64
2019-02-25T10:46:06.803Z,21.72
2019-02-25T10:47:04.811Z,21.72
2019-02-25T10:48:04.776Z,21.14
2019-02-25T10:49:11.038Z,21.33
2019-02-25T10:50:07.462Z,21.43
2019-02-25T10:51:05.278Z,21.42
2019-02-25T10:52:06.555Z,21.71
2019-02-25T10:53:04.573Z,22.49
2019-02-25T10:54:04.575Z,21.61
2019-02-25T10:55:04.573Z,21.22
2019-02-25T10:56:04.538Z,21.70
2019-02-25T10:57:04.466Z,21.80
2019-02-25T10:58:04.418Z,21.98
2019-02-25T10:59:06.127Z,21.79
2019-02-25T11:00:04.972Z,21.69
2019-02-25T11:01:04.299Z,21.88
2019-02-25T11:02:04.228Z,21.50
2019-02-25T11:03:04.213Z,21.50
2019-02-25T11:04:04.188Z,21.97
2019-02-25T11:05:04.189Z,22.16
2019-02-25T11:06:04.095Z,22.36
2019-02-25T11:07:05.658Z,21.96
2019-02-25T11:08:05.221Z,21.96
2019-02-25T11:09:03.979Z,22.44
2019-02-25T11:10:03.951Z,22.63
2019-02-25T11:11:03.862Z,23.01
2019-02-25T11:12:03.864Z,23.50
2019-02-25T11:13:04.375Z,23.12
2019-02-25T11:14:05.076Z,23.12
2019-02-25T11:15:05.283Z,22.45
2019-02-25T11:16:03.712Z,22.34
2019-02-25T11:17:03.702Z,22.54
2019-02-25T11:18:03.630Z,23.22
2019-02-25T11:19:03.592Z,23.22
2019-02-25T11:20:05.583Z,22.92
2019-02-25T11:21:05.620Z,23.32
2019-02-25T11:22:03.470Z,23.22
2019-02-25T11:23:03.401Z,22.83
2019-02-25T11:24:03.394Z,23.12
2019-02-25T11:25:03.367Z,23.02
2019-02-25T11:26:03.350Z,23.69
2019-02-25T11:27:05.085Z,23.79
2019-02-25T11:28:04.936Z,23.88
2019-02-25T11:29:03.170Z,23.99
2019-02-25T11:30:03.144Z,24.09
2019-02-25T11:31:03.112Z,23.69
2019-02-25T11:32:03.120Z,23.59
2019-02-25T11:33:03.038Z,24.56
2019-02-25T11:34:03.770Z,23.79
2019-02-25T11:35:04.077Z,23.79
2019-02-25T11:36:03.000Z,23.69
2019-02-25T11:37:02.881Z,24.37
2019-02-25T11:38:02.908Z,23.59
2019-02-25T11:39:04.486Z,24.08
2019-02-25T11:40:04.379Z,23.80
2019-02-25T11:41:04.790Z,23.70
2019-02-25T11:42:03.306Z,23.32
2019-02-25T11:43:02.674Z,23.80
2019-02-25T11:44:02.579Z,23.80
2019-02-25T11:45:04.525Z,23.79
2019-02-25T11:46:02.565Z,24.85
2019-02-25T11:47:02.451Z,25.62
2019-02-25T11:48:02.435Z,24.85
2019-02-25T11:49:02.398Z,24.85
2019-02-25T11:50:02.433Z,24.85
2019-02-25T11:51:02.310Z,24.67
2019-02-25T11:52:02.313Z,24.37
2019-02-25T11:53:02.214Z,25.24
2019-02-25T11:54:02.193Z,26.20
2019-02-25T11:55:02.285Z,24.96
2019-02-25T11:56:02.094Z,24.77
2019-02-25T11:57:02.082Z,24.85
2019-02-25T11:58:02.086Z,24.95
2019-02-25T11:59:01.978Z,24.57
2019-02-25T12:00:02.050Z,25.63
2019-02-25T12:01:01.960Z,25.44
2019-02-25T12:02:01.860Z,24.76
2019-02-25T12:03:01.839Z,25.15
2019-02-25T12:04:01.841Z,24.85
2019-02-25T12:05:01.849Z,24.66
2019-02-25T12:06:01.719Z,25.04
2019-02-25T12:07:01.720Z,24.85
2019-02-25T12:08:01.619Z,25.34
2019-02-25T12:09:01.693Z,25.82
2019-02-25T12:10:01.623Z,25.82
2019-02-25T12:11:01.501Z,25.52
2019-02-25T12:12:01.567Z,25.43
2019-02-25T12:13:01.480Z,25.52
2019-02-25T12:14:01.449Z,25.14
2019-02-25T12:15:01.364Z,25.43
2019-02-25T12:16:01.363Z,25.62
2019-02-25T12:17:01.329Z,25.92
2019-02-25T12:18:01.242Z,25.82
2019-02-25T12:19:01.270Z,25.72
2019-02-25T12:20:01.159Z,26.30
2019-02-25T12:21:01.127Z,26.40
2019-02-25T12:22:01.219Z,25.52
2019-02-25T12:23:01.099Z,25.52
2019-02-25T12:24:01.007Z,25.72
2019-02-25T12:25:00.989Z,25.24
2019-02-25T12:26:00.985Z,25.52
2019-02-25T12:27:00.893Z,25.92
2019-02-25T12:28:00.971Z,25.72
2019-02-25T12:29:08.488Z,25.52
2019-02-25T12:30:00.771Z,25.52
2019-02-25T12:31:00.773Z,25.15
2019-02-25T12:32:00.668Z,24.85
2019-02-25T12:33:00.745Z,24.46
2019-02-25T12:34:00.615Z,24.37
2019-02-25T12:35:00.546Z,25.04
2019-02-25T12:36:00.624Z,24.77
2019-02-25T12:37:00.496Z,24.67
2019-02-25T12:38:00.432Z,24.67
2019-02-25T12:39:00.410Z,23.70
2019-02-25T12:40:00.378Z,23.90
2019-02-25T12:41:00.386Z,23.70
2019-02-25T12:42:00.291Z,23.99
2019-02-25T12:43:00.268Z,24.38
2019-02-25T12:44:00.189Z,25.93
2019-02-25T12:45:00.311Z,24.96
2019-02-25T12:46:00.164Z,24.56
2019-02-25T12:47:00.148Z,23.79
2019-02-25T12:48:00.069Z,24.66
2019-02-25T12:49:00.045Z,23.79
2019-02-25T12:50:00.028Z,24.66
2019-02-25T12:50:59.949Z,25.24
2019-02-25T12:51:59.910Z,26.20